Time;durP1;ratioP1;P1;durP2;ratioP2;P2;SDS_P1;SDS_P2;PMS_P1;PMS_P2;Temp;Humidity;BMP_temperature;BMP_pressure;BME280_temperature;BME280_humidity;BME280_pressure;Samples;Min_cycle;Max_cycle;Signal;HPM_P1;HPM_P2
2020/12/01 00:00:45;;;;;;;9.50;5.40;;;4.40;93.60;;;;;;5023706;28;20036;-91
2020/12/01 00:03:12;;;;;;;10.20;5.43;;;4.30;93.60;;;;;;5030648;28;20029;-91
2020/12/01 00:05:38;;;;;;;8.52;3.85;;;4.30;93.50;;;;;;5021423;28;20036;-92
2020/12/01 00:08:12;;;;;;;9.82;4.82;;;4.30;93.50;;;;;;5020410;28;20040;-91
2020/12/01 00:10:39;;;;;;;8.18;4.57;;;4.40;93.60;;;;;;5046446;28;20028;-91
2020/12/01 00:13:06;;;;;;;12.02;6.00;;;4.40;93.70;;;;;;5020577;28;20078;-92
2020/12/01 00:15:32;;;;;;;5.60;4.10;;;4.40;93.60;;;;;;5023531;28;20035;-90
2020/12/01 00:17:57;;;;;;;9.88;5.07;;;4.40;93.60;;;;;;5020260;28;20036;-90
2020/12/01 00:20:23;;;;;;;12.23;7.15;;;4.40;93.60;;;;;;5019788;28;20083;-90
2020/12/01 00:22:49;;;;;;;4.72;2.80;;;4.40;93.60;;;;;;5038563;28;20028;-90
2020/12/01 00:25:15;;;;;;;5.28;4.05;;;4.40;93.70;;;;;;5028885;28;20036;-90
2020/12/01 00:27:40;;;;;;;8.98;5.80;;;4.40;93.70;;;;;;5037419;28;20040;-90
2020/12/01 00:30:15;;;;;;;4.35;2.88;;;4.40;93.60;;;;;;5022101;28;20033;-90
2020/12/01 00:32:41;;;;;;;5.40;3.30;;;4.40;93.60;;;;;;5039513;28;20051;-91
2020/12/01 00:35:08;;;;;;;6.25;4.05;;;4.40;93.60;;;;;;5024893;28;20041;-91
2020/12/01 00:37:36;;;;;;;10.23;5.50;;;4.40;93.60;;;;;;5039332;28;20029;-90
2020/12/01 00:40:02;;;;;;;11.88;7.85;;;4.40;93.70;;;;;;5019580;28;20037;-91
2020/12/01 00:42:28;;;;;;;8.85;5.07;;;4.40;93.70;;;;;;5019822;28;20036;-90
2020/12/01 00:44:53;;;;;;;9.18;5.28;;;4.40;93.60;;;;;;5030447;28;20028;-90
2020/12/01 00:47:19;;;;;;;8.23;3.90;;;4.40;93.60;;;;;;5016031;28;20036;-90
2020/12/01 00:49:44;;;;;;;6.55;4.18;;;4.40;93.70;;;;;;5026814;28;20080;-90
2020/12/01 00:52:10;;;;;;;8.20;5.03;;;4.40;93.60;;;;;;5039381;28;20040;-90
2020/12/01 00:54:36;;;;;;;6.72;4.53;;;4.40;93.60;;;;;;5034089;28;20097;-90
2020/12/01 00:57:02;;;;;;;3.90;2.72;;;4.40;93.60;;;;;;5024810;28;20427;-90
2020/12/01 00:59:27;;;;;;;8.07;4.32;;;4.40;93.70;;;;;;5034848;28;20074;-89
2020/12/01 01:01:53;;;;;;;8.32;4.47;;;4.40;93.60;;;;;;5038849;28;20603;-90
2020/12/01 01:04:21;;;;;;;4.93;2.60;;;4.40;93.60;;;;;;5010136;28;20029;-90
2020/12/01 01:06:49;;;;;;;6.63;4.00;;;4.50;93.70;;;;;;4988241;28;20036;-88
2020/12/01 01:09:18;;;;;;;5.35;3.33;;;4.50;93.60;;;;;;4963661;28;20017;-91
2020/12/01 01:11:44;;;;;;;7.20;4.68;;;4.50;93.60;;;;;;4977894;28;20572;-90
2020/12/01 01:14:11;;;;;;;9.13;4.97;;;4.50;93.70;;;;;;5001960;28;20064;-92
2020/12/01 01:16:43;;;;;;;8.90;6.00;;;4.50;93.70;;;;;;5045170;28;20044;-90
2020/12/01 01:19:09;;;;;;;11.15;4.93;;;4.50;93.60;;;;;;5037066;28;20024;-90
2020/12/01 01:21:42;;;;;;;12.23;6.65;;;4.50;93.60;;;;;;5028674;28;20033;-91
2020/12/01 01:24:07;;;;;;;6.53;3.17;;;4.50;93.70;;;;;;5018901;28;20024;-90
2020/12/01 01:26:33;;;;;;;8.02;4.63;;;4.50;93.70;;;;;;5036033;28;20092;-91
2020/12/01 01:28:58;;;;;;;14.73;9.95;;;4.50;93.70;;;;;;5019418;28;20037;-91
2020/12/01 01:31:24;;;;;;;4.90;3.42;;;4.50;93.70;;;;;;5016927;28;20033;-90
2020/12/01 01:33:50;;;;;;;7.75;4.38;;;4.60;93.70;;;;;;5012562;28;20716;-91
2020/12/01 01:36:15;;;;;;;14.80;8.48;;;4.60;93.70;;;;;;5021643;28;20481;-91
2020/12/01 01:38:41;;;;;;;16.30;9.02;;;4.50;93.60;;;;;;5017916;28;20036;-91
2020/12/01 01:41:07;;;;;;;16.67;9.90;;;4.60;93.70;;;;;;5021550;28;20029;-91
2020/12/01 01:43:32;;;;;;;17.40;11.43;;;4.50;93.60;;;;;;5031919;28;20056;-92
2020/12/01 01:45:58;;;;;;;12.10;5.30;;;4.60;93.60;;;;;;5024982;28;20032;-92
2020/12/01 01:48:33;;;;;;;14.93;8.15;;;4.60;93.60;;;;;;5004563;28;20033;-93
2020/12/01 01:51:08;;;;;;;15.50;9.73;;;4.60;93.60;;;;;;5028584;28;20029;-93
2020/12/01 01:53:36;;;;;;;17.13;10.75;;;4.60;93.60;;;;;;5036487;28;20326;-92
2020/12/01 01:56:07;;;;;;;9.75;5.18;;;4.60;93.70;;;;;;5024402;28;20219;-94
2020/12/01 01:58:36;;;;;;;9.45;3.83;;;4.60;93.70;;;;;;5019042;28;20034;-92
2020/12/01 02:01:07;;;;;;;13.75;6.82;;;4.50;93.60;;;;;;5020040;28;20029;-92
2020/12/01 02:03:50;;;;;;;18.40;11.90;;;4.60;93.60;;;;;;5035152;28;20035;-94
2020/12/01 02:06:18;;;;;;;12.00;6.80;;;4.70;93.60;;;;;;5028375;28;20037;-93
2020/12/01 02:08:51;;;;;;;11.60;7.00;;;4.50;93.60;;;;;;5039230;28;20131;-93
2020/12/01 02:11:18;;;;;;;17.95;11.75;;;4.60;93.70;;;;;;5027011;28;20032;-93
2020/12/01 02:14:09;;;;;;;15.40;8.93;;;4.60;93.70;;;;;;5010848;28;20092;-93
2020/12/01 02:16:36;;;;;;;14.43;8.20;;;4.60;93.70;;;;;;5036538;28;20029;-93
2020/12/01 02:19:02;;;;;;;13.80;8.50;;;4.60;93.70;;;;;;5021813;28;20025;-93
2020/12/01 02:21:33;;;;;;;8.05;3.78;;;4.60;93.60;;;;;;5028401;28;20128;-93
2020/12/01 02:24:00;;;;;;;11.07;5.93;;;4.60;93.70;;;;;;5015166;28;20119;-94
2020/12/01 02:26:26;;;;;;;7.05;3.80;;;4.70;93.70;;;;;;5027036;28;20039;-93
2020/12/01 02:29:00;;;;;;;12.98;6.20;;;4.60;93.70;;;;;;5017690;28;20040;-92
2020/12/01 02:31:26;;;;;;;7.40;3.40;;;4.60;93.70;;;;;;5034480;28;20037;-92
2020/12/01 02:33:51;;;;;;;18.35;9.02;;;4.70;93.70;;;;;;5024171;28;20047;-93
2020/12/01 02:36:17;;;;;;;10.63;6.43;;;4.70;93.70;;;;;;5017941;28;20029;-93
2020/12/01 02:38:42;;;;;;;14.52;8.40;;;4.70;93.70;;;;;;5026156;28;20049;-93
2020/12/01 02:41:08;;;;;;;14.15;8.15;;;4.70;93.70;;;;;;5027488;28;20029;-93
2020/12/01 02:43:34;;;;;;;9.32;5.70;;;4.70;93.60;;;;;;5025822;28;20086;-95
2020/12/01 02:46:00;;;;;;;13.93;8.43;;;4.80;93.80;;;;;;5022400;28;20048;-93
2020/12/01 02:48:26;;;;;;;17.65;10.40;;;4.70;93.70;;;;;;5036775;28;20446;-92
2020/12/01 02:50:52;;;;;;;17.85;9.32;;;4.70;93.80;;;;;;5024423;28;20028;-91
2020/12/01 02:53:17;;;;;;;14.88;8.45;;;4.60;93.70;;;;;;5031512;28;20090;-92
2020/12/01 02:55:43;;;;;;;15.68;10.55;;;4.60;93.70;;;;;;5031340;28;20489;-91
2020/12/01 02:58:08;;;;;;;16.15;8.40;;;4.60;93.70;;;;;;5030433;28;20102;-91
2020/12/01 03:00:34;;;;;;;13.38;7.22;;;4.60;93.70;;;;;;5036486;28;20029;-91
2020/12/01 03:03:00;;;;;;;17.83;8.73;;;4.60;93.70;;;;;;5033404;28;20555;-91
2020/12/01 03:05:26;;;;;;;15.32;8.23;;;4.60;93.60;;;;;;5049758;28;20522;-91
2020/12/01 03:07:51;;;;;;;13.57;6.65;;;4.60;93.70;;;;;;5036316;28;20753;-90
2020/12/01 03:10:17;;;;;;;13.07;6.90;;;4.60;93.70;;;;;;5026258;28;20033;-90
2020/12/01 03:12:43;;;;;;;18.88;9.93;;;4.70;93.60;;;;;;5033164;28;20039;-91
2020/12/01 03:15:12;;;;;;;16.20;9.15;;;4.60;93.60;;;;;;5019315;28;20032;-91
2020/12/01 03:17:37;;;;;;;17.40;9.52;;;4.60;93.60;;;;;;5019156;28;20033;-90
2020/12/01 03:20:03;;;;;;;19.55;10.55;;;4.70;93.60;;;;;;5021798;28;20606;-91
2020/12/01 03:22:29;;;;;;;17.27;11.35;;;4.70;93.50;;;;;;5027132;28;20043;-88
2020/12/01 03:24:54;;;;;;;17.67;11.05;;;4.70;93.60;;;;;;5032605;28;20036;-91
2020/12/01 03:27:20;;;;;;;18.13;10.18;;;4.70;93.50;;;;;;5039104;28;20040;-90
2020/12/01 03:29:45;;;;;;;17.95;11.82;;;4.60;93.60;;;;;;5017622;28;20039;-91
2020/12/01 03:32:11;;;;;;;18.85;10.93;;;4.60;93.60;;;;;;5046479;28;20062;-91
2020/12/01 03:34:36;;;;;;;19.10;11.30;;;4.70;93.60;;;;;;5053011;28;20025;-91
2020/12/01 03:37:02;;;;;;;18.17;10.88;;;4.70;93.60;;;;;;5037139;28;20115;-91
2020/12/01 03:39:27;;;;;;;17.58;10.18;;;4.70;93.60;;;;;;5019384;28;20044;-91
2020/12/01 03:41:53;;;;;;;10.82;5.95;;;4.70;93.60;;;;;;5035646;28;20391;-90
2020/12/01 03:44:19;;;;;;;19.05;10.25;;;4.70;93.50;;;;;;5032897;28;20040;-91
2020/12/01 03:46:44;;;;;;;14.77;9.57;;;4.70;93.50;;;;;;5022203;28;20530;-90
2020/12/01 03:49:18;;;;;;;15.63;9.80;;;4.70;93.60;;;;;;5019019;28;20059;-93
2020/12/01 03:51:43;;;;;;;17.27;10.18;;;4.70;93.60;;;;;;5043983;28;20044;-91
2020/12/01 03:54:09;;;;;;;23.00;13.23;;;4.70;93.60;;;;;;5020542;28;20188;-89
2020/12/01 03:56:39;;;;;;;17.30;10.23;;;4.80;93.60;;;;;;5024924;28;20041;-92
2020/12/01 03:59:04;;;;;;;16.27;8.10;;;4.80;93.60;;;;;;5010239;28;20037;-91
2020/12/01 04:01:30;;;;;;;20.20;11.95;;;4.80;93.60;;;;;;5031405;28;20033;-91
2020/12/01 04:03:55;;;;;;;18.05;11.70;;;4.80;93.60;;;;;;5015194;28;20503;-91
2020/12/01 04:06:21;;;;;;;16.60;10.48;;;4.70;93.90;;;;;;5030616;28;20029;-91
2020/12/01 04:08:47;;;;;;;16.35;10.35;;;4.80;93.60;;;;;;5043765;28;20116;-91
2020/12/01 04:11:18;;;;;;;17.40;10.80;;;4.80;93.50;;;;;;5014660;28;20048;-90
2020/12/01 04:13:44;;;;;;;20.67;11.25;;;4.80;93.50;;;;;;5022482;28;20473;-89
2020/12/01 04:16:09;;;;;;;19.95;12.95;;;4.70;93.60;;;;;;5010303;28;20025;-89
2020/12/01 04:18:35;;;;;;;15.80;9.68;;;4.80;93.60;;;;;;5015033;28;20029;-89
2020/12/01 04:21:03;;;;;;;20.35;12.80;;;4.80;93.50;;;;;;5021074;28;20051;-88
2020/12/01 04:23:28;;;;;;;19.83;12.60;;;4.80;93.40;;;;;;5028700;28;20032;-88
2020/12/01 04:25:54;;;;;;;19.27;11.98;;;4.80;93.20;;;;;;5019000;28;20025;-89
2020/12/01 04:28:20;;;;;;;18.35;11.35;;;4.90;93.30;;;;;;5032717;28;20024;-89
2020/12/01 04:30:45;;;;;;;19.90;13.52;;;4.80;93.30;;;;;;5013001;28;20032;-89
2020/12/01 04:33:11;;;;;;;22.30;13.70;;;4.80;93.40;;;;;;5023219;28;20049;-89
2020/12/01 04:35:36;;;;;;;22.30;13.73;;;4.80;93.40;;;;;;5036371;28;20037;-89
2020/12/01 04:38:06;;;;;;;23.77;12.57;;;4.80;93.40;;;;;;5028110;28;20028;-89
2020/12/01 04:40:36;;;;;;;19.88;12.27;;;4.80;93.40;;;;;;5034748;28;20384;-90
2020/12/01 04:43:14;;;;;;;21.63;13.50;;;4.80;93.40;;;;;;5018844;28;20040;-90
2020/12/01 04:45:41;;;;;;;23.55;13.77;;;4.90;93.40;;;;;;5026935;28;20029;-90
2020/12/01 04:48:33;;;;;;;20.08;11.63;;;4.80;93.30;;;;;;5014903;28;20032;-90
2020/12/01 04:51:09;;;;;;;18.70;13.30;;;4.90;93.30;;;;;;5028663;28;20576;-90
2020/12/01 04:53:53;;;;;;;19.17;12.55;;;4.80;93.30;;;;;;5018350;28;20046;-90
2020/12/01 04:56:59;;;;;;;17.58;10.98;;;4.80;93.40;;;;;;5053803;28;20055;-90
2020/12/01 04:59:47;;;;;;;18.40;11.57;;;4.90;93.20;;;;;;5030663;28;20396;-91
2020/12/01 05:02:27;;;;;;;23.90;15.02;;;4.90;93.20;;;;;;5028406;28;20044;-91
2020/12/01 05:05:08;;;;;;;22.00;11.55;;;4.90;93.20;;;;;;5046829;28;20105;-90
2020/12/01 05:08:00;;;;;;;23.75;13.98;;;4.90;93.40;;;;;;5037986;28;20135;-90
2020/12/01 05:10:26;;;;;;;29.20;16.33;;;4.90;93.10;;;;;;5026324;28;20499;-90
2020/12/01 05:12:57;;;;;;;19.77;11.88;;;5.00;93.30;;;;;;5032451;28;20047;-89
2020/12/01 05:15:35;;;;;;;23.65;14.48;;;4.80;93.30;;;;;;5020035;28;20052;-90
2020/12/01 05:18:19;;;;;;;19.08;11.82;;;4.90;93.20;;;;;;5035108;28;20032;-90
2020/12/01 05:21:02;;;;;;;24.65;16.00;;;4.90;93.20;;;;;;5030627;28;20069;-91
2020/12/01 05:23:33;;;;;;;20.85;13.88;;;5.00;93.20;;;;;;5017359;28;20091;-91
2020/12/01 05:26:09;;;;;;;24.55;14.68;;;5.10;93.10;;;;;;5049424;28;20033;-92
2020/12/01 05:28:56;;;;;;;19.90;12.93;;;5.00;93.00;;;;;;5029282;28;20055;-92
2020/12/01 05:31:29;;;;;;;22.45;13.30;;;5.10;93.10;;;;;;5010687;28;20044;-92
2020/12/01 05:34:12;;;;;;;21.47;12.93;;;5.00;93.10;;;;;;5028819;28;20036;-92
2020/12/01 05:36:58;;;;;;;20.75;13.57;;;5.10;93.00;;;;;;5013461;28;20271;-92
2020/12/01 05:39:27;;;;;;;23.80;14.02;;;5.00;92.90;;;;;;5001970;28;20474;-92
2020/12/01 05:42:05;;;;;;;20.75;12.30;;;5.00;92.90;;;;;;5015009;28;20067;-90
2020/12/01 05:44:32;;;;;;;22.77;15.27;;;5.00;93.10;;;;;;5030375;28;20036;-90
2020/12/01 05:47:13;;;;;;;21.65;13.70;;;5.10;93.10;;;;;;5000225;28;20033;-91
2020/12/01 05:49:43;;;;;;;19.88;12.60;;;5.20;93.20;;;;;;5017697;28;20025;-91
2020/12/01 05:52:54;;;;;;;21.10;13.40;;;5.10;93.00;;;;;;5021171;28;20037;-90
2020/12/01 05:55:26;;;;;;;22.92;13.48;;;5.10;93.00;;;;;;4961179;28;20098;-90
2020/12/01 05:58:02;;;;;;;22.00;14.07;;;5.10;92.90;;;;;;5007617;28;20044;-90
2020/12/01 06:00:30;;;;;;;43.65;16.10;;;5.20;93.00;;;;;;5040491;28;20124;-91
2020/12/01 06:03:33;;;;;;;27.27;16.98;;;5.10;93.10;;;;;;5012833;28;20045;-91
2020/12/01 06:06:00;;;;;;;25.63;14.77;;;5.10;93.00;;;;;;5034845;28;20037;-92
2020/12/01 06:08:50;;;;;;;28.42;16.17;;;5.10;93.00;;;;;;5020641;28;20029;-91
2020/12/01 06:11:39;;;;;;;21.50;13.40;;;5.10;93.10;;;;;;5015911;28;20039;-91
2020/12/01 06:14:24;;;;;;;22.17;13.20;;;5.10;93.10;;;;;;5029971;28;20082;-91
2020/12/01 06:16:52;;;;;;;25.30;15.15;;;5.10;93.10;;;;;;5035826;28;20416;-90
2020/12/01 06:19:25;;;;;;;25.92;14.48;;;5.10;93.00;;;;;;5004593;28;20034;-91
2020/12/01 06:22:05;;;;;;;31.27;15.95;;;5.10;93.00;;;;;;5029148;28;20052;-91
2020/12/01 06:24:39;;;;;;;27.58;14.23;;;5.10;93.10;;;;;;5036461;28;20718;-92
2020/12/01 06:27:31;;;;;;;28.65;15.98;;;5.10;93.00;;;;;;5044560;28;20031;-89
2020/12/01 06:30:03;;;;;;;35.40;16.60;;;5.10;93.00;;;;;;5029496;28;20032;-89
2020/12/01 06:32:41;;;;;;;36.35;18.15;;;5.20;93.00;;;;;;5048333;28;20048;-90
2020/12/01 06:35:44;;;;;;;38.75;18.10;;;5.20;93.10;;;;;;5047765;28;20037;-89
2020/12/01 06:38:33;;;;;;;42.80;16.55;;;5.20;93.40;;;;;;5069466;28;20503;-91
2020/12/01 06:41:02;;;;;;;39.60;14.65;;;5.20;93.30;;;;;;5032267;28;20036;-89
2020/12/01 06:43:39;;;;;;;39.78;19.60;;;5.20;93.30;;;;;;5021409;28;20484;-90
2020/12/01 06:46:30;;;;;;;38.45;17.90;;;5.20;93.20;;;;;;5041238;28;20107;-90
2020/12/01 06:48:55;;;;;;;49.72;20.83;;;5.20;93.40;;;;;;5040570;28;20028;-90
2020/12/01 06:51:21;;;;;;;34.13;14.25;;;5.30;93.20;;;;;;5017542;28;20042;-90
2020/12/01 06:53:47;;;;;;;32.10;15.50;;;5.20;93.10;;;;;;5038440;28;20063;-90
2020/12/01 06:56:17;;;;;;;43.17;20.20;;;5.20;93.00;;;;;;5038069;28;20048;-90
2020/12/01 06:58:49;;;;;;;31.58;12.88;;;5.40;93.10;;;;;;5012004;28;20128;-90
2020/12/01 07:01:18;;;;;;;33.72;14.70;;;5.30;93.00;;;;;;5033803;28;20033;-90
2020/12/01 07:03:44;;;;;;;40.53;19.48;;;5.20;93.10;;;;;;5045990;28;20436;-89
2020/12/01 07:06:11;;;;;;;40.10;18.70;;;5.20;93.00;;;;;;5014596;28;20025;-90
2020/12/01 07:08:50;;;;;;;29.85;14.70;;;5.30;93.10;;;;;;5056108;28;20028;-90
2020/12/01 07:11:30;;;;;;;38.67;18.60;;;5.30;93.10;;;;;;5021941;28;20032;-90
2020/12/01 07:14:02;;;;;;;48.03;20.15;;;5.30;93.20;;;;;;5038538;28;20025;-90
2020/12/01 07:16:48;;;;;;;35.88;17.52;;;5.30;93.10;;;;;;5026906;28;20021;-90
2020/12/01 07:19:37;;;;;;;38.03;17.35;;;5.30;93.10;;;;;;5067216;28;20058;-89
2020/12/01 07:22:16;;;;;;;47.30;19.00;;;5.30;93.10;;;;;;5048799;28;20027;-90
2020/12/01 07:25:01;;;;;;;36.45;17.35;;;5.30;93.00;;;;;;5027262;28;20029;-90
2020/12/01 07:27:39;;;;;;;46.55;16.52;;;5.30;93.00;;;;;;5054065;28;20024;-90
2020/12/01 07:30:17;;;;;;;25.65;9.90;;;5.40;93.00;;;;;;5023219;28;20025;-90
2020/12/01 07:33:02;;;;;;;31.17;11.10;;;5.40;93.20;;;;;;5021758;28;20690;-90
2020/12/01 07:35:30;;;;;;;37.97;16.73;;;5.40;93.10;;;;;;5036569;28;20447;-91
2020/12/01 07:37:58;;;;;;;42.80;19.45;;;5.40;93.10;;;;;;5037186;28;20112;-90
2020/12/01 07:40:29;;;;;;;35.20;15.10;;;5.40;93.20;;;;;;5020277;28;20032;-90
2020/12/01 07:43:04;;;;;;;45.95;18.33;;;5.40;93.20;;;;;;5016455;28;20033;-90
2020/12/01 07:45:30;;;;;;;39.78;18.27;;;5.40;93.50;;;;;;5020141;28;20823;-90
2020/12/01 07:48:01;;;;;;;44.05;19.25;;;5.40;93.20;;;;;;5038145;28;20032;-91
2020/12/01 07:50:27;;;;;;;53.03;22.70;;;5.50;93.20;;;;;;5017858;28;20086;-90
2020/12/01 07:53:02;;;;;;;44.35;19.45;;;5.50;93.30;;;;;;5019238;28;20082;-91
2020/12/01 07:55:57;;;;;;;24.67;11.38;;;5.40;93.20;;;;;;5035046;28;20031;-90
2020/12/01 07:58:24;;;;;;;36.25;15.85;;;5.50;93.10;;;;;;5022351;28;20118;-90
2020/12/01 08:00:54;;;;;;;36.47;15.32;;;5.50;93.10;;;;;;5029392;28;20032;-91
2020/12/01 08:03:36;;;;;;;42.60;15.75;;;5.50;93.20;;;;;;5036876;28;20043;-90
2020/12/01 08:06:04;;;;;;;39.08;18.80;;;5.50;93.20;;;;;;5027286;28;20039;-90
2020/12/01 08:08:35;;;;;;;40.22;17.98;;;5.50;93.30;;;;;;5027800;28;20021;-90
2020/12/01 08:11:03;;;;;;;39.85;18.25;;;5.60;93.10;;;;;;5033814;28;20120;-90
2020/12/01 08:13:32;;;;;;;47.10;20.73;;;5.60;93.00;;;;;;5038519;28;20036;-90
2020/12/01 08:16:01;;;;;;;45.70;20.13;;;5.70;93.20;;;;;;5012864;28;20025;-91
2020/12/01 08:18:27;;;;;;;39.15;17.73;;;5.60;93.20;;;;;;5018028;28;20028;-91
2020/12/01 08:20:56;;;;;;;50.95;22.70;;;5.70;93.00;;;;;;5029630;28;20040;-89
2020/12/01 08:23:23;;;;;;;40.95;18.80;;;5.60;93.00;;;;;;5010526;28;20098;-90
2020/12/01 08:25:57;;;;;;;45.65;19.48;;;5.70;93.10;;;;;;5034218;28;20037;-89
2020/12/01 08:28:26;;;;;;;40.58;18.13;;;5.70;93.40;;;;;;5029776;28;20060;-89
2020/12/01 08:30:58;;;;;;;39.85;17.65;;;5.70;93.30;;;;;;5034754;28;20090;-90
2020/12/01 08:33:45;;;;;;;45.05;19.25;;;5.70;93.20;;;;;;5027003;28;20036;-92
2020/12/01 08:36:40;;;;;;;34.33;17.00;;;5.80;93.30;;;;;;5047956;28;20498;-90
2020/12/01 08:39:27;;;;;;;41.75;17.20;;;5.80;93.30;;;;;;5046209;28;20032;-90
2020/12/01 08:41:57;;;;;;;37.65;17.95;;;5.80;93.20;;;;;;5028994;28;20043;-90
2020/12/01 08:44:43;;;;;;;43.65;19.17;;;5.80;93.20;;;;;;5023908;28;20135;-91
2020/12/01 08:47:09;;;;;;;53.17;23.92;;;5.90;93.40;;;;;;5034093;28;20037;-90
2020/12/01 08:49:44;;;;;;;58.45;22.63;;;5.90;93.40;;;;;;5039103;28;20040;-91
2020/12/01 08:52:41;;;;;;;46.17;15.75;;;6.10;93.80;;;;;;5022459;28;20105;-91
2020/12/01 08:55:26;;;;;;;37.38;16.75;;;6.00;93.10;;;;;;5033856;28;20364;-90
2020/12/01 08:58:09;;;;;;;47.15;18.80;;;6.00;93.30;;;;;;5023174;28;20037;-91
2020/12/01 09:00:35;;;;;;;42.33;17.67;;;6.00;93.30;;;;;;5032615;28;20496;-91
2020/12/01 09:03:10;;;;;;;41.55;18.02;;;6.10;93.40;;;;;;5012050;28;20028;-91
2020/12/01 09:05:43;;;;;;;39.65;17.48;;;6.10;93.40;;;;;;5034870;28;20039;-91
2020/12/01 09:08:35;;;;;;;35.70;15.95;;;6.20;93.20;;;;;;5023899;28;20055;-91
2020/12/01 09:11:15;;;;;;;34.47;15.93;;;6.10;93.20;;;;;;5004696;28;20040;-91
2020/12/01 09:13:57;;;;;;;34.72;16.25;;;6.30;93.40;;;;;;5040423;28;20043;-90
2020/12/01 09:22:34;;;;;;;26.73;12.95;;;6.30;93.40;;;;;;5059637;28;20453;-90
2020/12/01 09:25:17;;;;;;;28.67;13.75;;;6.40;93.20;;;;;;5033527;28;20035;-90
2020/12/01 09:27:42;;;;;;;13.98;7.30;;;6.40;93.10;;;;;;5037562;28;20029;-90
2020/12/01 09:30:31;;;;;;;32.63;15.35;;;6.40;93.00;;;;;;5025991;28;20029;-90
2020/12/01 09:32:58;;;;;;;39.45;15.55;;;6.40;92.80;;;;;;5021010;28;20561;-90
2020/12/01 09:35:24;;;;;;;26.20;12.80;;;6.40;93.30;;;;;;5010248;28;20040;-89
2020/12/01 09:37:52;;;;;;;36.90;13.60;;;6.50;93.20;;;;;;5020618;28;20036;-90
2020/12/01 09:40:26;;;;;;;24.15;11.23;;;6.40;93.30;;;;;;5027751;28;20543;-90
2020/12/01 09:42:58;;;;;;;30.85;14.35;;;6.50;93.10;;;;;;5015576;28;20342;-90
2020/12/01 09:45:35;;;;;;;31.90;14.80;;;6.50;93.40;;;;;;5023268;28;20510;-90
2020/12/01 09:50:35;;;;;;;20.52;11.07;;;6.60;93.40;;;;;;5048688;28;20028;-90
2020/12/01 10:09:07;;;;;;;28.13;12.50;;;6.70;93.20;;;;;;5042291;28;20042;-91
2020/12/01 10:14:19;;;;;;;25.15;12.95;;;7.00;93.40;;;;;;5030287;28;20117;-91
2020/12/01 10:20:05;;;;;;;22.23;12.45;;;7.00;92.90;;;;;;5028591;28;20043;-91
2020/12/01 10:35:42;;;;;;;13.93;7.13;;;7.00;92.90;;;;;;5043291;28;20562;-91
2020/12/01 10:38:07;;;;;;;12.35;6.88;;;7.00;93.30;;;;;;5021436;28;20037;-90
2020/12/01 10:40:39;;;;;;;15.18;6.18;;;7.00;93.10;;;;;;5018629;28;20025;-90
2020/12/01 10:43:05;;;;;;;16.30;9.40;;;7.00;93.60;;;;;;5018393;28;20028;-90
2020/12/01 10:45:31;;;;;;;12.68;6.68;;;7.10;93.10;;;;;;5024783;28;20086;-90
2020/12/01 10:47:57;;;;;;;10.23;6.40;;;7.00;93.20;;;;;;5018558;28;20029;-91
2020/12/01 10:50:26;;;;;;;11.13;6.70;;;7.00;93.40;;;;;;5014456;28;20065;-90
2020/12/01 10:52:51;;;;;;;10.25;5.97;;;7.00;92.90;;;;;;5011751;28;20041;-90
2020/12/01 10:55:30;;;;;;;14.27;8.15;;;7.00;93.00;;;;;;5030921;28;20036;-91
2020/12/01 10:57:56;;;;;;;11.15;6.78;;;7.00;92.80;;;;;;5035287;28;20043;-91
2020/12/01 11:00:22;;;;;;;13.88;8.65;;;7.00;93.50;;;;;;5035396;28;20033;-91
2020/12/01 11:02:48;;;;;;;19.83;8.95;;;7.10;93.30;;;;;;5036534;28;20088;-90
2020/12/01 11:05:29;;;;;;;15.52;9.20;;;7.00;92.80;;;;;;5019131;28;20052;-90
2020/12/01 11:07:55;;;;;;;13.00;6.47;;;7.20;93.00;;;;;;5022290;28;20043;-90
2020/12/01 11:10:21;;;;;;;13.07;7.55;;;7.10;93.20;;;;;;5021761;28;20105;-90
2020/12/01 11:12:46;;;;;;;15.13;7.85;;;7.10;92.80;;;;;;5026257;28;20045;-90
2020/12/01 11:15:12;;;;;;;12.32;7.65;;;7.10;93.20;;;;;;5037256;28;20032;-90
2020/12/01 11:17:37;;;;;;;12.85;8.23;;;7.10;92.80;;;;;;5021018;28;20033;-90
2020/12/01 11:20:05;;;;;;;10.98;8.50;;;7.20;93.00;;;;;;5021473;28;20112;-91
2020/12/01 11:22:31;;;;;;;10.27;7.40;;;7.20;93.30;;;;;;5028436;28;20029;-90
2020/12/01 11:25:03;;;;;;;12.68;8.63;;;7.20;92.80;;;;;;5029482;28;20499;-90
2020/12/01 11:27:28;;;;;;;14.32;9.82;;;7.20;93.10;;;;;;5018146;28;20029;-90
2020/12/01 11:29:54;;;;;;;17.60;11.18;;;7.40;93.90;;;;;;5038172;28;20033;-91
2020/12/01 11:32:20;;;;;;;15.30;9.98;;;7.30;93.90;;;;;;5022379;28;20037;-90
2020/12/01 11:34:45;;;;;;;12.48;7.53;;;7.30;92.90;;;;;;5021186;28;20120;-91
2020/12/01 11:37:11;;;;;;;13.43;8.85;;;7.30;92.80;;;;;;5023271;28;20552;-90
2020/12/01 11:39:37;;;;;;;13.80;9.10;;;7.30;92.80;;;;;;5021417;28;20105;-90
2020/12/01 11:42:02;;;;;;;13.43;8.60;;;7.40;93.30;;;;;;5021365;28;20033;-91
2020/12/01 11:44:28;;;;;;;13.00;9.13;;;7.40;93.40;;;;;;5019349;28;20071;-91
2020/12/01 11:46:55;;;;;;;14.40;9.15;;;7.60;93.70;;;;;;5053370;28;20568;-91
2020/12/01 11:49:21;;;;;;;11.20;8.63;;;7.50;93.40;;;;;;5024398;28;20032;-93
2020/12/01 11:51:47;;;;;;;20.65;12.50;;;7.50;93.30;;;;;;5031148;28;20794;-91
2020/12/01 11:54:12;;;;;;;22.67;13.27;;;7.60;93.20;;;;;;5035124;28;20761;-91
2020/12/01 11:56:38;;;;;;;27.00;15.90;;;7.60;93.80;;;;;;5036441;28;20059;-91
2020/12/01 11:59:04;;;;;;;21.88;13.63;;;7.70;94.20;;;;;;5029447;28;20025;-90
2020/12/01 12:05:00;;;;;;;20.70;13.07;;;7.80;93.70;;;;;;5069927;28;20046;-90
2020/12/01 12:07:26;;;;;;;32.20;17.98;;;7.90;93.90;;;;;;5028896;28;20047;-91
2020/12/01 12:09:52;;;;;;;23.88;13.18;;;7.90;94.00;;;;;;5021040;28;20316;-91
2020/12/01 12:12:17;;;;;;;25.17;13.43;;;7.90;94.00;;;;;;5025384;28;20078;-91
2020/12/01 12:14:43;;;;;;;27.48;16.08;;;7.90;93.70;;;;;;5020859;28;20052;-91
2020/12/01 12:17:09;;;;;;;36.13;15.45;;;7.90;94.10;;;;;;5021378;28;20771;-91
2020/12/01 12:19:34;;;;;;;40.25;16.35;;;7.90;93.80;;;;;;5030476;28;20029;-91
2020/12/01 12:22:06;;;;;;;31.83;16.55;;;7.90;94.20;;;;;;5024190;28;20058;-90
2020/12/01 12:24:35;;;;;;;29.20;15.38;;;7.90;94.20;;;;;;5024599;28;20029;-91
2020/12/01 12:27:01;;;;;;;32.45;16.92;;;7.90;94.10;;;;;;5031257;28;20032;-91
2020/12/01 12:29:42;;;;;;;31.60;18.10;;;8.00;94.20;;;;;;5000783;28;20071;-91
2020/12/01 12:32:14;;;;;;;32.35;15.30;;;8.00;94.40;;;;;;5003441;28;20040;-92
2020/12/01 12:34:45;;;;;;;32.00;16.83;;;8.00;93.90;;;;;;5017864;28;20056;-91
2020/12/01 12:37:11;;;;;;;29.08;16.40;;;8.00;94.30;;;;;;5037627;28;20079;-91
2020/12/01 12:39:36;;;;;;;33.78;18.02;;;8.20;94.50;;;;;;5019808;28;20473;-91
2020/12/01 12:42:05;;;;;;;24.75;14.80;;;8.10;94.40;;;;;;4990912;28;20061;-92
2020/12/01 12:47:37;;;;;;;38.42;19.42;;;8.30;94.10;;;;;;5013865;28;20082;-91
2020/12/01 12:50:10;;;;;;;32.53;16.02;;;8.10;94.50;;;;;;5025443;28;20047;-91
2020/12/01 12:52:42;;;;;;;30.02;17.42;;;8.10;94.10;;;;;;5010454;28;20041;-90
2020/12/01 12:55:48;;;;;;;41.42;20.35;;;8.30;94.40;;;;;;4921112;28;20030;-91
2020/12/01 12:58:25;;;;;;;36.13;18.60;;;8.20;94.40;;;;;;4918178;28;20115;-91
2020/12/01 13:00:54;;;;;;;31.17;15.88;;;8.20;93.90;;;;;;4921628;28;20035;-91
2020/12/01 13:03:35;;;;;;;34.17;17.45;;;8.20;93.80;;;;;;4949378;28;20035;-90
2020/12/01 13:06:11;;;;;;;36.10;17.27;;;8.20;94.30;;;;;;4934892;28;20325;-91
2020/12/01 13:08:39;;;;;;;37.22;20.10;;;8.20;94.20;;;;;;4971348;28;20065;-91
2020/12/01 13:11:13;;;;;;;36.03;19.70;;;8.20;94.40;;;;;;4981433;28;20038;-91
2020/12/01 13:13:46;;;;;;;32.45;18.15;;;8.30;94.70;;;;;;4983956;28;20029;-91
2020/12/01 13:16:14;;;;;;;33.80;19.23;;;8.30;94.40;;;;;;5005025;28;20035;-90
2020/12/01 13:18:42;;;;;;;27.83;17.23;;;8.20;94.40;;;;;;4992453;28;20038;-91
2020/12/01 13:21:21;;;;;;;28.77;19.23;;;8.20;94.20;;;;;;5025389;28;20037;-91
2020/12/01 13:23:52;;;;;;;24.65;17.33;;;8.20;94.80;;;;;;5009812;28;20037;-91
2020/12/01 13:26:23;;;;;;;29.98;17.98;;;8.40;94.90;;;;;;5019371;28;20053;-91
2020/12/01 13:28:52;;;;;;;23.65;17.55;;;8.30;94.90;;;;;;5019618;28;20029;-91
2020/12/01 13:31:24;;;;;;;20.30;15.90;;;8.30;95.20;;;;;;4999408;28;20578;-91
2020/12/01 13:33:52;;;;;;;21.17;15.52;;;8.30;95.10;;;;;;4990377;28;20045;-91
2020/12/01 13:36:21;;;;;;;25.30;16.17;;;8.30;95.00;;;;;;5007711;28;20086;-90
2020/12/01 13:38:55;;;;;;;19.23;13.75;;;8.10;94.80;;;;;;5011891;28;20041;-91
2020/12/01 13:41:24;;;;;;;23.90;14.70;;;8.20;95.20;;;;;;5026207;28;20028;-90
2020/12/01 13:43:49;;;;;;;18.65;13.35;;;8.10;95.10;;;;;;5045800;28;20119;-91
2020/12/01 13:46:16;;;;;;;13.88;10.13;;;8.20;95.00;;;;;;5025868;28;20108;-91
2020/12/01 13:48:47;;;;;;;12.35;8.80;;;8.20;95.40;;;;;;5016422;28;20043;-91
2020/12/01 13:51:18;;;;;;;14.45;9.82;;;8.20;95.30;;;;;;4994034;28;20030;-91